sensor_id;sensor_type;location;lat;lon;timestamp;pressure;altitude;pressure_sealevel;temperature
67599;BMP280;62026;39.230;9.122;2022-10-31T00:00:14;101670.97;;;20.18
67599;BMP280;62026;39.230;9.122;2022-10-31T00:02:42;101682.31;;;20.20
67599;BMP280;62026;39.230;9.122;2022-10-31T00:05:08;101670.44;;;20.16
67599;BMP280;62026;39.230;9.122;2022-10-31T00:07:34;101692.50;;;20.23
67599;BMP280;62026;39.230;9.122;2022-10-31T00:10:00;101686.00;;;20.19
67599;BMP280;62026;39.230;9.122;2022-10-31T00:12:26;101691.38;;;20.19
67599;BMP280;62026;39.230;9.122;2022-10-31T00:14:52;101684.41;;;20.18
67599;BMP280;62026;39.230;9.122;2022-10-31T00:17:18;101678.25;;;20.17
67599;BMP280;62026;39.230;9.122;2022-10-31T00:19:44;101686.53;;;20.16
67599;BMP280;62026;39.230;9.122;2022-10-31T00:22:10;101689.16;;;20.10
67599;BMP280;62026;39.230;9.122;2022-10-31T00:24:36;101681.69;;;20.13
67599;BMP280;62026;39.230;9.122;2022-10-31T00:27:02;101687.06;;;20.13
67599;BMP280;62026;39.230;9.122;2022-10-31T00:29:28;101679.22;;;20.11
67599;BMP280;62026;39.230;9.122;2022-10-31T00:31:54;101672.53;;;20.08
67599;BMP280;62026;39.230;9.122;2022-10-31T00:34:20;101681.09;;;20.10
67599;BMP280;62026;39.230;9.122;2022-10-31T00:36:46;101681.69;;;20.13
67599;BMP280;62026;39.230;9.122;2022-10-31T00:39:13;101667.41;;;20.07
67599;BMP280;62026;39.230;9.122;2022-10-31T00:41:39;101676.19;;;20.02
67599;BMP280;62026;39.230;9.122;2022-10-31T00:44:11;101681.06;;;20.05
67599;BMP280;62026;39.230;9.122;2022-10-31T00:46:37;101667.06;;;19.98
67599;BMP280;62026;39.230;9.122;2022-10-31T00:49:03;101663.31;;;19.99
67599;BMP280;62026;39.230;9.122;2022-10-31T00:51:29;101679.75;;;20.08
67599;BMP280;62026;39.230;9.122;2022-10-31T00:53:55;101675.38;;;20.02
67599;BMP280;62026;39.230;9.122;2022-10-31T00:56:21;101676.19;;;20.02
67599;BMP280;62026;39.230;9.122;2022-10-31T00:58:47;101674.03;;;19.99
67599;BMP280;62026;39.230;9.122;2022-10-31T01:01:13;101676.19;;;20.02
67599;BMP280;62026;39.230;9.122;2022-10-31T01:03:39;101659.50;;;19.95
67599;BMP280;62026;39.230;9.122;2022-10-31T01:06:12;101673.50;;;20.02
67599;BMP280;62026;39.230;9.122;2022-10-31T01:08:39;101677.25;;;20.01
67599;BMP280;62026;39.230;9.122;2022-10-31T01:11:17;101670.53;;;19.99
67599;BMP280;62026;39.230;9.122;2022-10-31T01:13:44;101661.00;;;19.86
67599;BMP280;62026;39.230;9.122;2022-10-31T01:16:16;101675.03;;;19.93
67599;BMP280;62026;39.230;9.122;2022-10-31T01:18:43;101670.72;;;19.92
67599;BMP280;62026;39.230;9.122;2022-10-31T01:21:14;101669.66;;;19.93
67599;BMP280;62026;39.230;9.122;2022-10-31T01:23:41;101665.09;;;19.94
67599;BMP280;62026;39.230;9.122;2022-10-31T01:26:22;101663.19;;;19.89
67599;BMP280;62026;39.230;9.122;2022-10-31T01:29:03;101664.53;;;19.92
67599;BMP280;62026;39.230;9.122;2022-10-31T01:31:33;101662.94;;;19.91
67599;BMP280;62026;39.230;9.122;2022-10-31T01:34:00;101637.88;;;19.80
67599;BMP280;62026;39.230;9.122;2022-10-31T01:36:36;101669.13;;;19.91
67599;BMP280;62026;39.230;9.122;2022-10-31T01:39:14;101636.44;;;19.72
67599;BMP280;62026;39.230;9.122;2022-10-31T01:41:48;101657.44;;;19.81
67599;BMP280;62026;39.230;9.122;2022-10-31T01:46:47;101662.78;;;19.81
67599;BMP280;62026;39.230;9.122;2022-10-31T01:52:00;101651.28;;;19.80
67599;BMP280;62026;39.230;9.122;2022-10-31T01:54:36;101651.28;;;19.80
67599;BMP280;62026;39.230;9.122;2022-10-31T01:57:07;101657.44;;;19.81
67599;BMP280;62026;39.230;9.122;2022-10-31T01:59:40;101649.03;;;19.72
67599;BMP280;62026;39.230;9.122;2022-10-31T02:02:07;101658.78;;;19.78
67599;BMP280;62026;39.230;9.122;2022-10-31T02:04:34;101655.53;;;19.76
67599;BMP280;62026;39.230;9.122;2022-10-31T02:07:24;101649.28;;;19.70
67599;BMP280;62026;39.230;9.122;2022-10-31T02:09:53;101650.38;;;19.69
67599;BMP280;62026;39.230;9.122;2022-10-31T02:12:22;101656.25;;;19.71
67599;BMP280;62026;39.230;9.122;2022-10-31T02:14:48;101652.22;;;19.69
67599;BMP280;62026;39.230;9.122;2022-10-31T02:17:15;101642.81;;;19.66
67599;BMP280;62026;39.230;9.122;2022-10-31T02:23:10;101641.50;;;19.69
67599;BMP280;62026;39.230;9.122;2022-10-31T02:31:52;101645.16;;;19.63
67599;BMP280;62026;39.230;9.122;2022-10-31T02:34:51;101648.66;;;19.63
67599;BMP280;62026;39.230;9.122;2022-10-31T02:41:01;101653.72;;;19.60
67599;BMP280;62026;39.230;9.122;2022-10-31T02:43:54;101642.72;;;19.61
67599;BMP280;62026;39.230;9.122;2022-10-31T02:46:50;101647.03;;;19.62
67599;BMP280;62026;39.230;9.122;2022-10-31T02:50:37;101651.59;;;19.62
67599;BMP280;62026;39.230;9.122;2022-10-31T02:52:33;101648.91;;;19.62
67599;BMP280;62026;39.230;9.122;2022-10-31T02:57:49;101639.19;;;19.56
67599;BMP280;62026;39.230;9.122;2022-10-31T03:00:19;101641.06;;;19.55
67599;BMP280;62026;39.230;9.122;2022-10-31T03:03:27;101648.28;;;19.55
67599;BMP280;62026;39.230;9.122;2022-10-31T03:06:24;101643.44;;;19.52
67599;BMP280;62026;39.230;9.122;2022-10-31T03:09:28;101643.44;;;19.52
67599;BMP280;62026;39.230;9.122;2022-10-31T03:12:40;101640.69;;;19.47
67599;BMP280;62026;39.230;9.122;2022-10-31T03:15:28;101648.72;;;19.47
67599;BMP280;62026;39.230;9.122;2022-10-31T03:18:17;101650.34;;;19.48
67599;BMP280;62026;39.230;9.122;2022-10-31T03:21:16;101651.31;;;19.42
67599;BMP280;62026;39.230;9.122;2022-10-31T03:23:46;101649.22;;;19.44
67599;BMP280;62026;39.230;9.122;2022-10-31T03:26:21;101631.38;;;19.32
67599;BMP280;62026;39.230;9.122;2022-10-31T03:29:03;101658.88;;;19.45
67599;BMP280;62026;39.230;9.122;2022-10-31T03:31:54;101649.69;;;19.41
67599;BMP280;62026;39.230;9.122;2022-10-31T03:34:23;101652.94;;;19.43
67599;BMP280;62026;39.230;9.122;2022-10-31T03:36:53;101651.09;;;19.43
67599;BMP280;62026;39.230;9.122;2022-10-31T03:39:22;101656.63;;;19.36
67599;BMP280;62026;39.230;9.122;2022-10-31T03:42:11;101655.81;;;19.36
67599;BMP280;62026;39.230;9.122;2022-10-31T03:44:46;101638.78;;;19.25
67599;BMP280;62026;39.230;9.122;2022-10-31T03:47:13;101664.94;;;19.40
67599;BMP280;62026;39.230;9.122;2022-10-31T03:49:39;101659.28;;;19.36
67599;BMP280;62026;39.230;9.122;2022-10-31T03:55:17;101667.53;;;19.35
67599;BMP280;62026;39.230;9.122;2022-10-31T03:57:53;101663.75;;;19.31
67599;BMP280;62026;39.230;9.122;2022-10-31T04:00:22;101663.22;;;19.29
67599;BMP280;62026;39.230;9.122;2022-10-31T04:05:31;101670.97;;;19.30
67599;BMP280;62026;39.230;9.122;2022-10-31T04:08:04;101670.91;;;19.25
67599;BMP280;62026;39.230;9.122;2022-10-31T04:10:33;101647.13;;;19.12
67599;BMP280;62026;39.230;9.122;2022-10-31T04:13:07;101673.59;;;19.25
67599;BMP280;62026;39.230;9.122;2022-10-31T04:15:43;101667.66;;;19.23
67599;BMP280;62026;39.230;9.122;2022-10-31T04:18:10;101673.03;;;19.23
67599;BMP280;62026;39.230;9.122;2022-10-31T04:20:39;101676.25;;;19.25
67599;BMP280;62026;39.230;9.122;2022-10-31T04:23:22;101672.22;;;19.23
67599;BMP280;62026;39.230;9.122;2022-10-31T04:25:50;101667.03;;;19.16
67599;BMP280;62026;39.230;9.122;2022-10-31T04:28:17;101675.13;;;19.21
67599;BMP280;62026;39.230;9.122;2022-10-31T04:30:44;101675.59;;;19.18
67599;BMP280;62026;39.230;9.122;2022-10-31T04:33:10;101669.63;;;19.11
67599;BMP280;62026;39.230;9.122;2022-10-31T04:35:37;101679.25;;;19.12
67599;BMP280;62026;39.230;9.122;2022-10-31T04:38:03;101670.09;;;19.08
67599;BMP280;62026;39.230;9.122;2022-10-31T04:40:29;101681.72;;;19.14
67599;BMP280;62026;39.230;9.122;2022-10-31T04:43:14;101681.06;;;19.07
67599;BMP280;62026;39.230;9.122;2022-10-31T04:45:42;101692.59;;;19.07
67599;BMP280;62026;39.230;9.122;2022-10-31T04:48:09;101674.00;;;19.00
67599;BMP280;62026;39.230;9.122;2022-10-31T04:50:36;101685.53;;;19.01
67599;BMP280;62026;39.230;9.122;2022-10-31T04:53:02;101693.44;;;18.96
67599;BMP280;62026;39.230;9.122;2022-10-31T04:55:37;101685.34;;;18.91
67599;BMP280;62026;39.230;9.122;2022-10-31T04:58:33;101696.88;;;18.91
67599;BMP280;62026;39.230;9.122;2022-10-31T05:00:59;101692.81;;;18.89
67599;BMP280;62026;39.230;9.122;2022-10-31T05:03:25;101693.28;;;18.86
67599;BMP280;62026;39.230;9.122;2022-10-31T05:05:51;101678.69;;;18.77
67599;BMP280;62026;39.230;9.122;2022-10-31T05:08:17;101692.63;;;18.79
67599;BMP280;62026;39.230;9.122;2022-10-31T05:10:45;101680.97;;;18.68
67599;BMP280;62026;39.230;9.122;2022-10-31T05:13:11;101691.84;;;18.67
67599;BMP280;62026;39.230;9.122;2022-10-31T05:16:12;101697.72;;;18.63
67599;BMP280;62026;39.230;9.122;2022-10-31T05:18:50;101696.09;;;18.62
67599;BMP280;62026;39.230;9.122;2022-10-31T05:21:19;101694.47;;;18.61
67599;BMP280;62026;39.230;9.122;2022-10-31T05:23:50;101694.38;;;18.56
67599;BMP280;62026;39.230;9.122;2022-10-31T05:26:17;101685.91;;;18.48
67599;BMP280;62026;39.230;9.122;2022-10-31T05:28:44;101695.91;;;18.52
67599;BMP280;62026;39.230;9.122;2022-10-31T05:31:10;101694.22;;;18.46
67599;BMP280;62026;39.230;9.122;2022-10-31T05:33:36;101690.09;;;18.44
67599;BMP280;62026;39.230;9.122;2022-10-31T05:36:21;101700.81;;;18.44
67599;BMP280;62026;39.230;9.122;2022-10-31T05:38:58;101687.69;;;18.42
67599;BMP280;62026;39.230;9.122;2022-10-31T05:41:28;101688.75;;;18.41
67599;BMP280;62026;39.230;9.122;2022-10-31T05:44:03;101689.78;;;18.40
67599;BMP280;62026;39.230;9.122;2022-10-31T05:46:32;101690.84;;;18.39
67599;BMP280;62026;39.230;9.122;2022-10-31T05:49:21;101671.72;;;18.31
67599;BMP280;62026;39.230;9.122;2022-10-31T05:51:57;101689.22;;;18.38
67599;BMP280;62026;39.230;9.122;2022-10-31T05:54:31;101698.88;;;18.39
67599;BMP280;62026;39.230;9.122;2022-10-31T05:56:58;101697.72;;;18.35
67599;BMP280;62026;39.230;9.122;2022-10-31T05:59:24;101694.56;;;18.38
67599;BMP280;62026;39.230;9.122;2022-10-31T06:01:50;101703.75;;;18.42
67599;BMP280;62026;39.230;9.122;2022-10-31T06:04:35;101711.50;;;18.44
67599;BMP280;62026;39.230;9.122;2022-10-31T06:07:02;101702.13;;;18.41
67599;BMP280;62026;39.230;9.122;2022-10-31T06:09:29;101710.25;;;18.46
67599;BMP280;62026;39.230;9.122;2022-10-31T06:11:55;101712.53;;;18.54
67599;BMP280;62026;39.230;9.122;2022-10-31T06:14:24;101715.78;;;18.56
67599;BMP280;62026;39.230;9.122;2022-10-31T06:16:55;101712.94;;;18.63
67599;BMP280;62026;39.230;9.122;2022-10-31T06:19:40;101721.38;;;18.72
67599;BMP280;62026;39.230;9.122;2022-10-31T06:22:07;101725.22;;;18.76
67599;BMP280;62026;39.230;9.122;2022-10-31T06:24:33;101728.66;;;18.88
67599;BMP280;62026;39.230;9.122;2022-10-31T06:27:06;101701.00;;;18.82
67599;BMP280;62026;39.230;9.122;2022-10-31T06:29:32;101723.94;;;18.95
67599;BMP280;62026;39.230;9.122;2022-10-31T06:32:10;101729.31;;;19.12
67599;BMP280;62026;39.230;9.122;2022-10-31T06:34:41;101731.81;;;19.18
67599;BMP280;62026;39.230;9.122;2022-10-31T06:37:11;101733.03;;;19.27
67599;BMP280;62026;39.230;9.122;2022-10-31T06:39:40;101739.03;;;19.34
67599;BMP280;62026;39.230;9.122;2022-10-31T06:42:09;101720.25;;;19.29
67599;BMP280;62026;39.230;9.122;2022-10-31T06:44:35;101728.00;;;19.48
67599;BMP280;62026;39.230;9.122;2022-10-31T06:47:39;101736.16;;;19.58
67599;BMP280;62026;39.230;9.122;2022-10-31T06:50:08;101737.81;;;19.59
67599;BMP280;62026;39.230;9.122;2022-10-31T06:52:34;101743.78;;;19.66
67599;BMP280;62026;39.230;9.122;2022-10-31T06:55:03;101738.22;;;19.67
67599;BMP280;62026;39.230;9.122;2022-10-31T06:57:30;101748.41;;;19.70
67599;BMP280;62026;39.230;9.122;2022-10-31T06:59:56;101749.50;;;19.69
67599;BMP280;62026;39.230;9.122;2022-10-31T07:02:40;101755.78;;;19.80
67599;BMP280;62026;39.230;9.122;2022-10-31T07:05:07;101752.63;;;19.83
67599;BMP280;62026;39.230;9.122;2022-10-31T07:07:33;101749.19;;;20.04
67599;BMP280;62026;39.230;9.122;2022-10-31T07:09:59;101755.06;;;20.06
67599;BMP280;62026;39.230;9.122;2022-10-31T07:12:41;101759.38;;;20.07
67599;BMP280;62026;39.230;9.122;2022-10-31T07:15:08;101755.19;;;20.38
67599;BMP280;62026;39.230;9.122;2022-10-31T07:17:35;101757.03;;;20.65
67599;BMP280;62026;39.230;9.122;2022-10-31T07:20:01;101749.84;;;20.65
67599;BMP280;62026;39.230;9.122;2022-10-31T07:22:37;101753.97;;;20.78
67599;BMP280;62026;39.230;9.122;2022-10-31T07:25:07;101756.78;;;20.93
67599;BMP280;62026;39.230;9.122;2022-10-31T07:28:11;101766.16;;;20.91
67599;BMP280;62026;39.230;9.122;2022-10-31T07:30:39;101753.94;;;21.10
67599;BMP280;62026;39.230;9.122;2022-10-31T07:33:05;101754.81;;;21.15
67599;BMP280;62026;39.230;9.122;2022-10-31T07:35:52;101762.44;;;21.29
67599;BMP280;62026;39.230;9.122;2022-10-31T07:38:22;101777.56;;;21.40
67599;BMP280;62026;39.230;9.122;2022-10-31T07:40:52;101777.88;;;21.48
67599;BMP280;62026;39.230;9.122;2022-10-31T07:43:19;101788.97;;;21.62
67599;BMP280;62026;39.230;9.122;2022-10-31T07:46:17;101785.03;;;21.75
67599;BMP280;62026;39.230;9.122;2022-10-31T07:48:46;101786.75;;;21.96
67599;BMP280;62026;39.230;9.122;2022-10-31T07:51:30;101788.91;;;21.99
67599;BMP280;62026;39.230;9.122;2022-10-31T07:54:15;101791.13;;;22.12
67599;BMP280;62026;39.230;9.122;2022-10-31T07:56:41;101790.41;;;22.42
67599;BMP280;62026;39.230;9.122;2022-10-31T07:59:08;101790.66;;;22.46
67599;BMP280;62026;39.230;9.122;2022-10-31T08:01:34;101786.66;;;22.43
67599;BMP280;62026;39.230;9.122;2022-10-31T08:04:21;101802.00;;;22.53
67599;BMP280;62026;39.230;9.122;2022-10-31T08:07:05;101794.47;;;22.55
67599;BMP280;62026;39.230;9.122;2022-10-31T08:09:35;101806.31;;;22.69
67599;BMP280;62026;39.230;9.122;2022-10-31T08:12:06;101806.88;;;22.86
67599;BMP280;62026;39.230;9.122;2022-10-31T08:14:34;101810.94;;;22.89
67599;BMP280;62026;39.230;9.122;2022-10-31T08:17:00;101806.38;;;23.20
67599;BMP280;62026;39.230;9.122;2022-10-31T08:19:34;101802.56;;;23.41
67599;BMP280;62026;39.230;9.122;2022-10-31T08:22:00;101808.97;;;23.55
67599;BMP280;62026;39.230;9.122;2022-10-31T08:24:27;101805.69;;;23.68
67599;BMP280;62026;39.230;9.122;2022-10-31T08:26:54;101807.88;;;23.71
67599;BMP280;62026;39.230;9.122;2022-10-31T08:29:20;101804.63;;;23.74
67599;BMP280;62026;39.230;9.122;2022-10-31T08:31:46;101805.09;;;23.97
67599;BMP280;62026;39.230;9.122;2022-10-31T08:34:31;101812.13;;;23.87
67599;BMP280;62026;39.230;9.122;2022-10-31T08:37:16;101802.53;;;24.15
67599;BMP280;62026;39.230;9.122;2022-10-31T08:39:46;101810.38;;;24.17
67599;BMP280;62026;39.230;9.122;2022-10-31T08:42:13;101805.78;;;24.12
67599;BMP280;62026;39.230;9.122;2022-10-31T08:44:39;101805.88;;;23.92
67599;BMP280;62026;39.230;9.122;2022-10-31T08:47:05;101817.28;;;24.33
67599;BMP280;62026;39.230;9.122;2022-10-31T08:49:33;101807.28;;;24.72
67599;BMP280;62026;39.230;9.122;2022-10-31T08:51:59;101806.31;;;24.58
67599;BMP280;62026;39.230;9.122;2022-10-31T08:54:31;101809.00;;;24.63
67599;BMP280;62026;39.230;9.122;2022-10-31T08:57:17;101801.25;;;24.86
67599;BMP280;62026;39.230;9.122;2022-10-31T08:59:45;101805.50;;;24.92
67599;BMP280;62026;39.230;9.122;2022-10-31T09:02:11;101797.63;;;24.66
67599;BMP280;62026;39.230;9.122;2022-10-31T09:04:38;101806.28;;;24.92
67599;BMP280;62026;39.230;9.122;2022-10-31T09:07:04;101798.91;;;25.03
67599;BMP280;62026;39.230;9.122;2022-10-31T09:09:30;101799.47;;;25.52
67599;BMP280;62026;39.230;9.122;2022-10-31T09:11:56;101814.22;;;25.65
67599;BMP280;62026;39.230;9.122;2022-10-31T09:14:22;101800.16;;;25.87
67599;BMP280;62026;39.230;9.122;2022-10-31T09:17:18;101797.72;;;25.85
67599;BMP280;62026;39.230;9.122;2022-10-31T09:20:04;101800.41;;;26.04
67599;BMP280;62026;39.230;9.122;2022-10-31T09:22:33;101798.66;;;25.76
67599;BMP280;62026;39.230;9.122;2022-10-31T09:25:00;101789.28;;;25.44
67599;BMP280;62026;39.230;9.122;2022-10-31T09:27:26;101812.91;;;25.63
67599;BMP280;62026;39.230;9.122;2022-10-31T09:29:55;101805.59;;;25.82
67599;BMP280;62026;39.230;9.122;2022-10-31T09:32:21;101806.41;;;25.11
67599;BMP280;62026;39.230;9.122;2022-10-31T09:34:47;101799.81;;;25.22
67599;BMP280;62026;39.230;9.122;2022-10-31T09:37:19;101800.56;;;25.51
67599;BMP280;62026;39.230;9.122;2022-10-31T09:39:45;101796.69;;;24.47
67599;BMP280;62026;39.230;9.122;2022-10-31T09:46:44;101798.09;;;24.73
67599;BMP280;62026;39.230;9.122;2022-10-31T09:49:03;101804.41;;;24.25
67599;BMP280;62026;39.230;9.122;2022-10-31T09:52:18;101795.41;;;24.68
67599;BMP280;62026;39.230;9.122;2022-10-31T09:54:53;101799.50;;;24.71
67599;BMP280;62026;39.230;9.122;2022-10-31T09:57:32;101805.72;;;24.27
67599;BMP280;62026;39.230;9.122;2022-10-31T10:00:01;101807.59;;;24.32
67599;BMP280;62026;39.230;9.122;2022-10-31T10:08:35;101790.25;;;24.38
67599;BMP280;62026;39.230;9.122;2022-10-31T10:17:15;101791.91;;;23.80
67599;BMP280;62026;39.230;9.122;2022-10-31T10:22:47;101775.41;;;23.97
67599;BMP280;62026;39.230;9.122;2022-10-31T10:25:28;101768.44;;;23.80
67599;BMP280;62026;39.230;9.122;2022-10-31T10:28:22;101786.88;;;23.58
67599;BMP280;62026;39.230;9.122;2022-10-31T10:31:01;101781.56;;;23.17
67599;BMP280;62026;39.230;9.122;2022-10-31T10:33:54;101785.31;;;23.37
67599;BMP280;62026;39.230;9.122;2022-10-31T10:38:59;101780.72;;;23.37
67599;BMP280;62026;39.230;9.122;2022-10-31T10:41:32;101772.69;;;23.27
67599;BMP280;62026;39.230;9.122;2022-10-31T10:43:58;101766.16;;;23.38
67599;BMP280;62026;39.230;9.122;2022-10-31T10:46:57;101759.69;;;23.44
67599;BMP280;62026;39.230;9.122;2022-10-31T10:49:51;101771.03;;;23.41
67599;BMP280;62026;39.230;9.122;2022-10-31T10:55:31;101765.63;;;23.41
67599;BMP280;62026;39.230;9.122;2022-10-31T10:58:00;101750.31;;;23.11
67599;BMP280;62026;39.230;9.122;2022-10-31T11:00:37;101756.75;;;23.21
67599;BMP280;62026;39.230;9.122;2022-10-31T11:03:04;101734.13;;;23.01
67599;BMP280;62026;39.230;9.122;2022-10-31T11:05:51;101748.06;;;23.39
67599;BMP280;62026;39.230;9.122;2022-10-31T11:08:35;101747.34;;;23.13
67599;BMP280;62026;39.230;9.122;2022-10-31T11:11:31;101740.84;;;23.24
67599;BMP280;62026;39.230;9.122;2022-10-31T11:14:05;101722.56;;;23.01
67599;BMP280;62026;39.230;9.122;2022-10-31T11:16:42;101739.28;;;23.18
67599;BMP280;62026;39.230;9.122;2022-10-31T11:21:37;101732.81;;;23.19
67599;BMP280;62026;39.230;9.122;2022-10-31T11:24:14;101730.91;;;23.20
67599;BMP280;62026;39.230;9.122;2022-10-31T11:26:43;101726.59;;;23.13
67599;BMP280;62026;39.230;9.122;2022-10-31T11:29:21;101734.69;;;23.19
67599;BMP280;62026;39.230;9.122;2022-10-31T11:31:53;101739.00;;;23.20
67599;BMP280;62026;39.230;9.122;2022-10-31T11:34:32;101716.13;;;22.97
67599;BMP280;62026;39.230;9.122;2022-10-31T11:37:16;101726.38;;;22.95
67599;BMP280;62026;39.230;9.122;2022-10-31T11:39:56;101723.34;;;23.01
67599;BMP280;62026;39.230;9.122;2022-10-31T11:42:37;101724.19;;;23.02
67599;BMP280;62026;39.230;9.122;2022-10-31T11:45:32;101713.13;;;23.08
67599;BMP280;62026;39.230;9.122;2022-10-31T11:48:02;101700.25;;;22.80
67599;BMP280;62026;39.230;9.122;2022-10-31T11:50:38;101717.19;;;23.01
67599;BMP280;62026;39.230;9.122;2022-10-31T11:53:18;101717.47;;;23.04
67599;BMP280;62026;39.230;9.122;2022-10-31T11:55:46;101706.72;;;22.79
67599;BMP280;62026;39.230;9.122;2022-10-31T11:58:24;101714.50;;;22.86
67599;BMP280;62026;39.230;9.122;2022-10-31T12:00:55;101710.47;;;22.88
67599;BMP280;62026;39.230;9.122;2022-10-31T12:06:34;101701.34;;;22.74
67599;BMP280;62026;39.230;9.122;2022-10-31T12:09:00;101705.63;;;22.80
67599;BMP280;62026;39.230;9.122;2022-10-31T12:27:18;101680.34;;;22.81
67599;BMP280;62026;39.230;9.122;2022-10-31T12:29:57;101663.09;;;22.87
67599;BMP280;62026;39.230;9.122;2022-10-31T12:32:38;101660.97;;;22.59
67599;BMP280;62026;39.230;9.122;2022-10-31T12:47:00;101664.16;;;22.96
67599;BMP280;62026;39.230;9.122;2022-10-31T12:52:54;101648.53;;;22.78
67599;BMP280;62026;39.230;9.122;2022-10-31T13:01:35;101652.88;;;22.74
67599;BMP280;62026;39.230;9.122;2022-10-31T13:04:43;101652.31;;;22.77
67599;BMP280;62026;39.230;9.122;2022-10-31T13:07:41;101649.09;;;22.80
67599;BMP280;62026;39.230;9.122;2022-10-31T13:10:45;101641.53;;;22.77
67599;BMP280;62026;39.230;9.122;2022-10-31T13:13:24;101643.69;;;22.75
67599;BMP280;62026;39.230;9.122;2022-10-31T13:16:14;101633.50;;;22.62
67599;BMP280;62026;39.230;9.122;2022-10-31T13:19:08;101638.34;;;22.65
67599;BMP280;62026;39.230;9.122;2022-10-31T13:22:17;101639.44;;;22.59
67599;BMP280;62026;39.230;9.122;2022-10-31T13:24:58;101639.16;;;22.65
67599;BMP280;62026;39.230;9.122;2022-10-31T13:27:32;101616.53;;;22.61
67599;BMP280;62026;39.230;9.122;2022-10-31T13:30:17;101628.09;;;22.62
67599;BMP280;62026;39.230;9.122;2022-10-31T13:33:17;101612.50;;;22.54
67599;BMP280;62026;39.230;9.122;2022-10-31T13:42:03;101620.03;;;22.67
67599;BMP280;62026;39.230;9.122;2022-10-31T13:44:36;101600.13;;;22.43
67599;BMP280;62026;39.230;9.122;2022-10-31T13:47:28;101629.19;;;22.66
67599;BMP280;62026;39.230;9.122;2022-10-31T13:50:19;101631.31;;;22.69
67599;BMP280;62026;39.230;9.122;2022-10-31T13:52:45;101627.53;;;22.80
67599;BMP280;62026;39.230;9.122;2022-10-31T13:55:49;101628.34;;;22.75
67599;BMP280;62026;39.230;9.122;2022-10-31T13:58:55;101628.09;;;22.62
67599;BMP280;62026;39.230;9.122;2022-10-31T14:01:22;101627.28;;;22.76
67599;BMP280;62026;39.230;9.122;2022-10-31T14:04:02;101636.44;;;22.70
67599;BMP280;62026;39.230;9.122;2022-10-31T14:06:52;101628.09;;;22.72
67599;BMP280;62026;39.230;9.122;2022-10-31T14:09:26;101624.88;;;22.60
67599;BMP280;62026;39.230;9.122;2022-10-31T14:11:54;101620.03;;;22.72
67599;BMP280;62026;39.230;9.122;2022-10-31T14:14:26;101620.03;;;22.72
67599;BMP280;62026;39.230;9.122;2022-10-31T14:16:57;101613.03;;;22.66
67599;BMP280;62026;39.230;9.122;2022-10-31T14:19:25;101627.56;;;22.65
67599;BMP280;62026;39.230;9.122;2022-10-31T14:21:51;101624.06;;;22.69
67599;BMP280;62026;39.230;9.122;2022-10-31T14:26:59;101612.50;;;22.64
67599;BMP280;62026;39.230;9.122;2022-10-31T14:29:33;101617.34;;;22.72
67599;BMP280;62026;39.230;9.122;2022-10-31T14:48:56;101611.69;;;22.38
67599;BMP280;62026;39.230;9.122;2022-10-31T14:51:42;101603.09;;;22.31
67599;BMP280;62026;39.230;9.122;2022-10-31T14:54:35;101612.53;;;22.28
67599;BMP280;62026;39.230;9.122;2022-10-31T14:57:15;101614.13;;;22.29
67599;BMP280;62026;39.230;9.122;2022-10-31T14:59:50;101614.13;;;22.39
67599;BMP280;62026;39.230;9.122;2022-10-31T15:02:28;101609.81;;;22.23
67599;BMP280;62026;39.230;9.122;2022-10-31T15:05:00;101612.50;;;22.18
67599;BMP280;62026;39.230;9.122;2022-10-31T15:07:27;101610.34;;;22.30
67599;BMP280;62026;39.230;9.122;2022-10-31T15:10:00;101601.22;;;22.31
67599;BMP280;62026;39.230;9.122;2022-10-31T15:12:33;101609.28;;;22.16
67599;BMP280;62026;39.230;9.122;2022-10-31T15:15:16;101611.44;;;22.19
67599;BMP280;62026;39.230;9.122;2022-10-31T15:17:48;101608.75;;;22.19
67599;BMP280;62026;39.230;9.122;2022-10-31T15:20:27;101611.19;;;22.26
67599;BMP280;62026;39.230;9.122;2022-10-31T15:22:57;101603.91;;;22.16
67599;BMP280;62026;39.230;9.122;2022-10-31T15:25:28;101600.66;;;22.29
67599;BMP280;62026;39.230;9.122;2022-10-31T15:27:55;101612.25;;;22.35
67599;BMP280;62026;39.230;9.122;2022-10-31T15:30:27;101606.34;;;22.28
67599;BMP280;62026;39.230;9.122;2022-10-31T15:32:54;101610.91;;;22.17
67599;BMP280;62026;39.230;9.122;2022-10-31T15:35:23;101607.66;;;22.30
67599;BMP280;62026;39.230;9.122;2022-10-31T15:37:52;101613.59;;;22.22
67599;BMP280;62026;39.230;9.122;2022-10-31T15:40:22;101599.88;;;22.09
67599;BMP280;62026;39.230;9.122;2022-10-31T15:43:05;101612.50;;;22.23
67599;BMP280;62026;39.230;9.122;2022-10-31T15:45:35;101614.13;;;22.09
67599;BMP280;62026;39.230;9.122;2022-10-31T15:48:14;101609.25;;;22.06
67599;BMP280;62026;39.230;9.122;2022-10-31T15:50:49;101618.16;;;22.12
67599;BMP280;62026;39.230;9.122;2022-10-31T15:53:36;101619.50;;;22.09
67599;BMP280;62026;39.230;9.122;2022-10-31T15:56:11;101609.28;;;22.16
67599;BMP280;62026;39.230;9.122;2022-10-31T15:58:49;101604.41;;;21.93
67599;BMP280;62026;39.230;9.122;2022-10-31T16:04:05;101619.47;;;21.99
67599;BMP280;62026;39.230;9.122;2022-10-31T16:06:40;101628.34;;;22.10
67599;BMP280;62026;39.230;9.122;2022-10-31T16:09:23;101597.44;;;21.82
67599;BMP280;62026;39.230;9.122;2022-10-31T16:11:50;101625.41;;;21.96
67599;BMP280;62026;39.230;9.122;2022-10-31T16:14:26;101628.06;;;21.91
67599;BMP280;62026;39.230;9.122;2022-10-31T16:16:57;101608.47;;;22.00
67599;BMP280;62026;39.230;9.122;2022-10-31T16:19:33;101623.22;;;21.98
67599;BMP280;62026;39.230;9.122;2022-10-31T16:22:08;101639.41;;;22.03
67599;BMP280;62026;39.230;9.122;2022-10-31T16:24:48;101645.03;;;22.07
67599;BMP280;62026;39.230;9.122;2022-10-31T16:27:28;101639.94;;;22.10
67599;BMP280;62026;39.230;9.122;2022-10-31T16:29:57;101646.63;;;21.92
67599;BMP280;62026;39.230;9.122;2022-10-31T16:32:52;101655.56;;;22.13
67599;BMP280;62026;39.230;9.122;2022-10-31T16:35:37;101654.47;;;22.04
67599;BMP280;62026;39.230;9.122;2022-10-31T16:38:05;101654.72;;;21.97
67599;BMP280;62026;39.230;9.122;2022-10-31T16:40:31;101645.78;;;21.87